Time;durP1;ratioP1;P1;durP2;ratioP2;P2;SDS_P1;SDS_P2;PMS_P1;PMS_P2;Temp;Humidity;BMP_temperature;BMP_pressure;BME280_temperature;BME280_humidity;BME280_pressure;Samples;Min_cycle;Max_cycle;Signal;HPM_P1;HPM_P2
2023/12/28 00:01:36;;;;;;;0.87;0.73;;;9.60;99.90;;;;;;7396054;19;20141;-77
2023/12/28 00:04:02;;;;;;;0.77;0.77;;;9.60;99.90;;;;;;7395031;19;20672;-76
2023/12/28 00:06:27;;;;;;;0.87;0.83;;;9.70;99.90;;;;;;7396931;19;20211;-76
2023/12/28 00:08:53;;;;;;;1.33;0.93;;;9.60;99.90;;;;;;7398566;19;20138;-77
2023/12/28 00:11:20;;;;;;;1.40;1.13;;;9.60;99.90;;;;;;7395232;19;20202;-76
2023/12/28 00:13:46;;;;;;;0.77;0.70;;;9.60;99.90;;;;;;7396215;19;20160;-76
2023/12/28 00:16:11;;;;;;;0.70;0.60;;;9.70;99.90;;;;;;7394920;19;20517;-76
2023/12/28 00:18:37;;;;;;;1.70;0.87;;;9.60;99.90;;;;;;7395498;19;20139;-77
2023/12/28 00:21:03;;;;;;;1.70;1.13;;;9.20;99.90;;;;;;7395532;19;20226;-77
2023/12/28 00:23:29;;;;;;;1.03;0.90;;;9.30;99.90;;;;;;7396199;19;20158;-77
2023/12/28 00:25:54;;;;;;;0.77;0.50;;;9.40;99.90;;;;;;7395850;19;20210;-76
2023/12/28 00:28:20;;;;;;;0.57;0.53;;;9.50;99.90;;;;;;7395628;19;20166;-76
2023/12/28 00:30:46;;;;;;;0.67;0.57;;;9.30;99.90;;;;;;7396706;19;20210;-78
2023/12/28 00:33:11;;;;;;;1.90;0.70;;;9.50;99.90;;;;;;7395810;19;20142;-76
2023/12/28 00:35:37;;;;;;;1.07;0.40;;;9.20;99.90;;;;;;7395774;19;20138;-78
2023/12/28 00:38:03;;;;;;;0.73;0.73;;;9.20;99.90;;;;;;7395027;19;20139;-77
2023/12/28 00:40:29;;;;;;;0.80;0.63;;;9.30;99.90;;;;;;7396195;19;20142;-78
2023/12/28 00:42:55;;;;;;;1.13;0.70;;;9.40;99.90;;;;;;7392701;19;20135;-77
2023/12/28 00:45:21;;;;;;;0.73;0.50;;;9.20;99.90;;;;;;7396445;19;20143;-77
2023/12/28 00:47:47;;;;;;;0.40;0.40;;;9.40;99.90;;;;;;7397372;19;20615;-78
2023/12/28 00:50:16;;;;;;;0.80;0.67;;;9.50;99.90;;;;;;7397039;19;20139;-78
2023/12/28 00:52:41;;;;;;;0.80;0.50;;;9.50;99.90;;;;;;7393997;19;20154;-77
2023/12/28 00:55:07;;;;;;;1.47;0.70;;;9.40;99.90;;;;;;7394915;19;20161;-78
2023/12/28 00:57:34;;;;;;;0.57;0.40;;;9.30;99.90;;;;;;7394843;19;20608;-78
2023/12/28 01:00:00;;;;;;;1.00;0.60;;;9.30;99.90;;;;;;7394756;19;20265;-78
2023/12/28 01:02:26;;;;;;;0.70;0.70;;;9.40;99.90;;;;;;7393481;19;20612;-78
2023/12/28 01:04:51;;;;;;;0.50;0.43;;;9.30;99.90;;;;;;7388720;19;20193;-77
2023/12/28 01:07:17;;;;;;;0.60;0.57;;;9.00;99.90;;;;;;7393183;19;20137;-77
2023/12/28 01:09:43;;;;;;;0.40;0.40;;;9.00;99.90;;;;;;7391930;19;20864;-77
2023/12/28 01:12:12;;;;;;;0.50;0.50;;;8.90;99.90;;;;;;7393779;19;20146;-77
2023/12/28 01:14:38;;;;;;;0.60;0.50;;;8.80;99.90;;;;;;7392935;19;20154;-77
2023/12/28 01:17:03;;;;;;;0.83;0.53;;;8.80;99.90;;;;;;7393446;19;20180;-77
2023/12/28 01:19:29;;;;;;;0.60;0.50;;;9.00;99.90;;;;;;7392927;19;20175;-77
2023/12/28 01:21:55;;;;;;;0.70;0.50;;;9.00;99.90;;;;;;7392898;19;20608;-77
2023/12/28 01:24:21;;;;;;;0.60;0.60;;;9.10;99.90;;;;;;7393542;19;20154;-78
2023/12/28 01:26:47;;;;;;;0.83;0.70;;;9.10;99.90;;;;;;7392243;19;20584;-77
2023/12/28 01:29:13;;;;;;;0.83;0.80;;;9.10;99.90;;;;;;7393353;19;20174;-77
2023/12/28 01:31:40;;;;;;;0.60;0.60;;;9.00;99.90;;;;;;7390523;19;20713;-76
2023/12/28 01:34:09;;;;;;;0.80;0.53;;;9.20;99.90;;;;;;7392740;19;20158;-77
2023/12/28 01:36:35;;;;;;;2.10;0.90;;;9.30;99.90;;;;;;7392584;19;20158;-78
2023/12/28 01:39:03;;;;;;;1.43;0.97;;;9.40;99.90;;;;;;7392817;19;20150;-78
2023/12/28 01:41:29;;;;;;;1.70;0.83;;;9.10;99.90;;;;;;7392260;19;20157;-77
2023/12/28 01:43:54;;;;;;;0.67;0.50;;;9.10;99.90;;;;;;7392565;19;20150;-77
2023/12/28 01:46:21;;;;;;;0.80;0.67;;;9.20;99.90;;;;;;7393821;19;20146;-77
2023/12/28 01:48:49;;;;;;;2.10;0.73;;;9.00;99.90;;;;;;7393236;19;20170;-77
2023/12/28 01:51:16;;;;;;;0.60;0.60;;;8.80;99.90;;;;;;7393239;19;20170;-78
2023/12/28 01:53:43;;;;;;;0.50;0.50;;;8.70;99.90;;;;;;7393127;19;20653;-77
2023/12/28 01:56:09;;;;;;;0.80;0.73;;;8.60;99.90;;;;;;7393596;19;20142;-76
2023/12/28 01:58:40;;;;;;;0.80;0.80;;;9.00;99.90;;;;;;7392506;19;20624;-76
2023/12/28 02:01:09;;;;;;;0.87;0.60;;;9.10;99.90;;;;;;7393200;19;20179;-77
2023/12/28 02:03:35;;;;;;;0.70;0.70;;;9.20;99.90;;;;;;7390253;19;20202;-77
2023/12/28 02:06:02;;;;;;;0.57;0.57;;;9.00;99.90;;;;;;7392786;19;20126;-77
2023/12/28 02:08:28;;;;;;;0.50;0.50;;;9.10;99.90;;;;;;7391619;19;20151;-78
2023/12/28 02:10:55;;;;;;;0.70;0.70;;;8.90;99.90;;;;;;7391702;19;20138;-77
2023/12/28 02:13:21;;;;;;;0.50;0.43;;;8.80;99.90;;;;;;7393543;19;20149;-76
2023/12/28 02:16:22;;;;;;;0.50;0.50;;;8.70;99.90;;;;;;7391152;19;20142;-78
2023/12/28 02:18:51;;;;;;;0.43;0.43;;;8.60;99.90;;;;;;7390021;19;20150;-77
2023/12/28 02:21:19;;;;;;;0.73;0.70;;;8.60;99.90;;;;;;7391475;19;20146;-78
2023/12/28 02:23:49;;;;;;;1.03;0.67;;;8.60;99.90;;;;;;7391233;19;20146;-77
2023/12/28 02:26:18;;;;;;;0.30;0.30;;;8.80;99.90;;;;;;7391799;19;20134;-77
2023/12/28 02:28:45;;;;;;;0.40;0.40;;;9.00;99.90;;;;;;7392652;19;20146;-77
2023/12/28 02:31:23;;;;;;;0.93;0.60;;;9.20;99.90;;;;;;7391306;19;20151;-78
2023/12/28 02:33:57;;;;;;;0.43;0.43;;;9.40;99.90;;;;;;7392038;19;20643;-77
2023/12/28 02:36:26;;;;;;;0.50;0.50;;;9.40;99.90;;;;;;7390690;19;20490;-79
2023/12/28 02:38:53;;;;;;;0.53;0.53;;;9.50;99.90;;;;;;7389547;19;20134;-78
2023/12/28 02:41:19;;;;;;;0.43;0.43;;;9.50;99.90;;;;;;7398409;19;20584;-76
2023/12/28 02:43:47;;;;;;;0.50;0.50;;;9.50;99.90;;;;;;7398569;19;20556;-77
2023/12/28 02:46:13;;;;;;;0.47;0.43;;;9.60;99.90;;;;;;7397555;19;20202;-77
2023/12/28 02:48:42;;;;;;;0.40;0.40;;;9.50;99.90;;;;;;7397494;19;20167;-77
2023/12/28 02:51:08;;;;;;;0.73;0.57;;;9.40;99.90;;;;;;7398188;19;20178;-78
2023/12/28 02:53:34;;;;;;;1.23;0.83;;;9.00;99.90;;;;;;7397602;19;20138;-78
2023/12/28 02:55:59;;;;;;;0.80;0.70;;;9.00;99.90;;;;;;7398031;19;20607;-77
2023/12/28 02:58:25;;;;;;;0.57;0.47;;;8.90;99.90;;;;;;7398112;19;20196;-77
2023/12/28 03:00:51;;;;;;;0.83;0.77;;;8.70;99.90;;;;;;7397234;19;20624;-77
2023/12/28 03:03:17;;;;;;;0.40;0.40;;;8.70;99.90;;;;;;7396527;19;20215;-78
2023/12/28 03:05:42;;;;;;;0.70;0.70;;;9.10;99.90;;;;;;7398165;19;20150;-78
2023/12/28 03:08:08;;;;;;;0.50;0.50;;;9.10;99.90;;;;;;7397496;19;20135;-78
2023/12/28 03:10:34;;;;;;;0.93;0.40;;;9.30;99.90;;;;;;7397088;19;20135;-78
2023/12/28 03:13:00;;;;;;;1.17;0.60;;;9.40;99.90;;;;;;7397177;19;20134;-77
2023/12/28 03:15:26;;;;;;;0.77;0.60;;;9.30;99.90;;;;;;7397089;19;20162;-77
2023/12/28 03:17:52;;;;;;;0.50;0.37;;;9.30;99.90;;;;;;7398867;19;20198;-77
2023/12/28 03:20:18;;;;;;;0.40;0.40;;;9.20;99.90;;;;;;7397356;19;20142;-78
2023/12/28 03:22:44;;;;;;;1.23;0.77;;;9.20;99.90;;;;;;7394489;19;21520;-77
2023/12/28 03:25:09;;;;;;;2.70;0.60;;;9.30;99.90;;;;;;7397413;19;20143;-77
2023/12/28 03:27:35;;;;;;;0.97;0.60;;;8.70;99.90;;;;;;7396465;19;20130;-77
2023/12/28 03:30:01;;;;;;;0.37;0.37;;;8.90;99.90;;;;;;7396107;19;20461;-77
2023/12/28 03:32:27;;;;;;;0.40;0.40;;;8.80;99.90;;;;;;7396315;19;20148;-77
2023/12/28 03:34:52;;;;;;;0.40;0.40;;;9.00;99.90;;;;;;7396749;19;20146;-77
2023/12/28 03:37:18;;;;;;;0.90;0.57;;;9.10;99.90;;;;;;7397117;19;20170;-77
2023/12/28 03:39:45;;;;;;;1.60;0.50;;;8.90;99.90;;;;;;7396719;19;20161;-76
2023/12/28 03:42:12;;;;;;;0.30;0.30;;;9.10;99.90;;;;;;7393864;19;20145;-77
2023/12/28 03:44:37;;;;;;;0.60;0.53;;;8.90;99.90;;;;;;7396488;19;20156;-77
2023/12/28 03:47:03;;;;;;;0.77;0.67;;;8.80;99.90;;;;;;7395912;19;20146;-77
2023/12/28 03:49:29;;;;;;;0.70;0.43;;;8.90;99.90;;;;;;7394939;19;20153;-77
2023/12/28 03:51:55;;;;;;;0.50;0.50;;;9.10;99.90;;;;;;7394458;19;20599;-78
2023/12/28 03:54:21;;;;;;;1.60;0.63;;;9.20;99.90;;;;;;7397070;19;20147;-76
2023/12/28 03:56:47;;;;;;;0.50;0.50;;;9.20;99.90;;;;;;7395510;19;20154;-76
2023/12/28 03:59:15;;;;;;;1.57;0.70;;;9.30;99.90;;;;;;7395675;19;20239;-77
2023/12/28 04:01:40;;;;;;;0.70;0.70;;;9.30;99.90;;;;;;7394828;19;20142;-76
2023/12/28 04:04:06;;;;;;;0.40;0.40;;;9.40;99.90;;;;;;7394724;19;20182;-77
2023/12/28 04:06:32;;;;;;;0.80;0.60;;;9.30;99.90;;;;;;7397553;19;20156;-77
2023/12/28 04:08:58;;;;;;;0.40;0.40;;;9.30;99.90;;;;;;7395228;19;20150;-78
2023/12/28 04:11:23;;;;;;;0.77;0.60;;;9.30;99.90;;;;;;7395661;19;20138;-78
2023/12/28 04:13:50;;;;;;;0.43;0.40;;;9.30;99.90;;;;;;7394182;19;20158;-77
2023/12/28 04:16:16;;;;;;;0.60;0.50;;;9.30;99.90;;;;;;7396390;19;20135;-77
2023/12/28 04:18:42;;;;;;;0.90;0.50;;;9.40;99.90;;;;;;7394276;19;20446;-77
2023/12/28 04:21:10;;;;;;;0.67;0.67;;;9.30;99.90;;;;;;7394385;19;20130;-77
2023/12/28 04:23:36;;;;;;;0.67;0.40;;;9.30;99.90;;;;;;7394968;19;20142;-77
2023/12/28 04:26:02;;;;;;;2.00;0.60;;;9.30;99.90;;;;;;7395400;19;20608;-78
2023/12/28 04:28:28;;;;;;;0.67;0.50;;;9.30;99.90;;;;;;7396082;19;20126;-77
2023/12/28 04:30:54;;;;;;;0.57;0.50;;;9.30;99.90;;;;;;7395187;19;20210;-77
2023/12/28 04:33:20;;;;;;;0.40;0.40;;;9.30;99.90;;;;;;7395740;19;20572;-77
2023/12/28 04:35:46;;;;;;;0.70;0.50;;;9.30;99.90;;;;;;7394368;19;20568;-78
2023/12/28 04:38:12;;;;;;;0.93;0.83;;;9.40;99.90;;;;;;7394628;19;20147;-76
2023/12/28 04:40:38;;;;;;;2.10;0.80;;;9.40;99.90;;;;;;7394402;19;20150;-76
2023/12/28 04:43:04;;;;;;;0.70;0.70;;;9.30;99.90;;;;;;7392457;19;20165;-76
2023/12/28 04:45:30;;;;;;;0.50;0.50;;;9.30;99.90;;;;;;7394388;19;20142;-76
2023/12/28 04:47:55;;;;;;;1.50;0.83;;;9.20;99.90;;;;;;7394473;19;20138;-77
2023/12/28 04:50:21;;;;;;;0.70;0.57;;;8.90;99.90;;;;;;7394220;19;20584;-76
2023/12/28 04:52:47;;;;;;;0.73;0.70;;;9.20;99.90;;;;;;7394583;19;20173;-76
2023/12/28 04:55:13;;;;;;;0.43;0.40;;;9.40;99.90;;;;;;7394446;19;20134;-77
2023/12/28 04:57:41;;;;;;;1.00;0.90;;;9.40;99.90;;;;;;7394639;19;20150;-77
2023/12/28 05:00:08;;;;;;;0.60;0.60;;;9.40;99.90;;;;;;7394982;19;20171;-76
2023/12/28 05:02:34;;;;;;;0.80;0.80;;;9.40;99.90;;;;;;7392136;19;20158;-78
2023/12/28 05:05:00;;;;;;;0.40;0.40;;;9.30;99.90;;;;;;7392457;19;20181;-77
2023/12/28 05:07:26;;;;;;;0.40;0.40;;;9.10;99.90;;;;;;7394268;19;20135;-77
2023/12/28 05:09:51;;;;;;;0.60;0.50;;;9.00;99.90;;;;;;7393522;19;20226;-77
2023/12/28 05:12:17;;;;;;;0.40;0.40;;;9.10;99.90;;;;;;7394818;19;20207;-78
2023/12/28 05:14:43;;;;;;;0.50;0.50;;;9.20;99.90;;;;;;7393935;19;20151;-77
2023/12/28 05:17:09;;;;;;;0.80;0.70;;;9.30;99.90;;;;;;7393646;19;20913;-77
2023/12/28 05:19:35;;;;;;;0.97;0.90;;;9.30;99.90;;;;;;7392317;19;20147;-78
2023/12/28 05:22:03;;;;;;;1.27;0.60;;;9.20;99.90;;;;;;7393227;19;20495;-78
2023/12/28 05:24:29;;;;;;;0.80;0.77;;;9.20;99.90;;;;;;7393183;19;20225;-77
2023/12/28 05:26:55;;;;;;;1.47;1.07;;;9.40;99.90;;;;;;7393230;19;20180;-78
2023/12/28 05:29:21;;;;;;;1.23;0.90;;;9.40;99.90;;;;;;7391926;19;20139;-77
2023/12/28 05:31:47;;;;;;;1.47;0.60;;;9.40;99.90;;;;;;7391595;19;20138;-76
2023/12/28 05:34:13;;;;;;;0.87;0.70;;;9.40;99.90;;;;;;7390746;19;20146;-76
2023/12/28 05:36:41;;;;;;;0.77;0.63;;;9.50;99.90;;;;;;7393398;19;20162;-76
2023/12/28 05:39:09;;;;;;;0.50;0.50;;;9.60;99.90;;;;;;7392357;19;20131;-76
2023/12/28 05:41:35;;;;;;;2.33;0.80;;;9.70;99.90;;;;;;7391816;19;20142;-76
2023/12/28 05:44:01;;;;;;;0.30;0.30;;;9.90;99.90;;;;;;7393023;19;20171;-77
2023/12/28 05:46:28;;;;;;;0.60;0.60;;;9.90;99.90;;;;;;7391948;19;20150;-76
2023/12/28 05:48:53;;;;;;;0.80;0.60;;;9.90;99.90;;;;;;7392191;19;20225;-76
2023/12/28 05:51:19;;;;;;;0.60;0.53;;;10.00;99.90;;;;;;7392391;19;20180;-77
2023/12/28 05:53:46;;;;;;;1.20;0.67;;;10.00;99.90;;;;;;7393102;19;20150;-77
2023/12/28 05:56:12;;;;;;;1.37;1.13;;;9.90;99.90;;;;;;7392487;19;20185;-78
2023/12/28 05:58:38;;;;;;;0.60;0.50;;;9.60;99.90;;;;;;7391789;19;20146;-77
2023/12/28 06:01:07;;;;;;;0.30;0.30;;;9.30;99.90;;;;;;7391022;19;20154;-77
2023/12/28 06:03:33;;;;;;;0.67;0.60;;;9.30;99.90;;;;;;7391552;19;20679;-76
2023/12/28 06:05:59;;;;;;;1.67;0.65;;;9.20;99.90;;;;;;7391214;19;20147;-77
2023/12/28 06:08:25;;;;;;;1.33;0.67;;;9.20;99.90;;;;;;7392644;19;20143;-76
2023/12/28 06:10:51;;;;;;;1.00;0.50;;;9.40;99.90;;;;;;7392754;19;20138;-76
2023/12/28 06:13:17;;;;;;;0.33;0.33;;;9.40;99.90;;;;;;7393795;19;20166;-77
2023/12/28 06:15:43;;;;;;;0.50;0.50;;;9.50;99.90;;;;;;7398781;19;20146;-77
2023/12/28 06:18:09;;;;;;;1.13;0.70;;;9.60;99.90;;;;;;7399127;19;20158;-77
2023/12/28 06:20:36;;;;;;;0.50;0.40;;;9.70;99.90;;;;;;7400139;19;20142;-77
2023/12/28 06:23:03;;;;;;;0.40;0.40;;;9.80;99.90;;;;;;7395704;19;20607;-78
2023/12/28 06:25:29;;;;;;;0.60;0.60;;;9.90;99.90;;;;;;7398023;19;20143;-77
2023/12/28 06:27:55;;;;;;;0.70;0.70;;;10.10;99.90;;;;;;7398638;19;20158;-78
2023/12/28 06:30:20;;;;;;;0.93;0.83;;;10.10;99.90;;;;;;7398471;19;20592;-77
2023/12/28 06:32:46;;;;;;;0.50;0.50;;;10.10;99.90;;;;;;7398557;19;20155;-78
2023/12/28 06:35:12;;;;;;;0.60;0.60;;;10.00;99.90;;;;;;7398782;19;20142;-78
2023/12/28 06:37:38;;;;;;;1.03;0.83;;;10.00;99.90;;;;;;7397871;19;20799;-79
2023/12/28 06:40:04;;;;;;;0.57;0.57;;;10.10;99.90;;;;;;7398028;19;20158;-78
2023/12/28 06:42:30;;;;;;;0.95;0.40;;;10.20;99.90;;;;;;7396122;19;20154;-78
2023/12/28 06:44:55;;;;;;;0.98;0.60;;;10.30;99.90;;;;;;7396304;19;20214;-79
2023/12/28 06:47:21;;;;;;;0.35;0.35;;;10.30;99.90;;;;;;7399452;19;20206;-78
2023/12/28 06:49:47;;;;;;;0.77;0.43;;;10.50;99.90;;;;;;7399544;19;20202;-78
2023/12/28 06:52:12;;;;;;;0.98;0.60;;;10.60;99.90;;;;;;7399590;19;20146;-78
2023/12/28 06:54:38;;;;;;;0.80;0.60;;;10.60;99.90;;;;;;7397303;19;20162;-77
2023/12/28 06:57:04;;;;;;;0.40;0.40;;;10.80;99.90;;;;;;7399417;19;20491;-77
2023/12/28 06:59:30;;;;;;;0.57;0.57;;;10.80;99.90;;;;;;7396916;19;20613;-77
2023/12/28 07:01:55;;;;;;;0.37;0.37;;;10.90;99.90;;;;;;7394803;19;20847;-77
2023/12/28 07:04:21;;;;;;;0.60;0.60;;;11.00;99.90;;;;;;7395679;19;20181;-77
2023/12/28 07:06:47;;;;;;;0.60;0.60;;;11.10;99.90;;;;;;7399098;19;20206;-80
2023/12/28 07:09:13;;;;;;;0.98;0.60;;;11.10;99.90;;;;;;7394388;19;20135;-79
2023/12/28 07:11:38;;;;;;;2.07;0.77;;;11.00;99.90;;;;;;7398346;19;20135;-79
2023/12/28 07:14:04;;;;;;;0.40;0.40;;;11.00;99.90;;;;;;7396205;19;20631;-80
2023/12/28 07:16:30;;;;;;;0.90;0.60;;;11.10;99.90;;;;;;7396736;19;20154;-78
2023/12/28 07:18:56;;;;;;;1.33;0.70;;;11.10;99.90;;;;;;7397606;19;20135;-79
2023/12/28 07:21:22;;;;;;;0.40;0.40;;;11.10;99.90;;;;;;7397008;19;20214;-78
2023/12/28 07:23:49;;;;;;;1.07;0.90;;;11.10;99.90;;;;;;7397108;19;20806;-79
2023/12/28 07:26:15;;;;;;;1.05;0.90;;;11.00;99.90;;;;;;7388200;19;20270;-78
2023/12/28 07:28:43;;;;;;;1.37;0.77;;;10.70;99.90;;;;;;7396733;19;20158;-78
2023/12/28 07:31:09;;;;;;;0.82;0.70;;;10.60;99.90;;;;;;7395525;19;20150;-78
2023/12/28 07:33:35;;;;;;;0.60;0.60;;;10.50;99.90;;;;;;7397705;19;20588;-78
2023/12/28 07:36:02;;;;;;;0.60;0.50;;;10.60;99.90;;;;;;7396311;19;20162;-78
2023/12/28 07:38:28;;;;;;;0.70;0.70;;;10.70;99.90;;;;;;7394737;19;20168;-77
2023/12/28 07:40:54;;;;;;;1.20;1.10;;;10.60;99.90;;;;;;7396868;19;20648;-77
2023/12/28 07:43:20;;;;;;;0.93;0.80;;;10.90;99.90;;;;;;7390948;19;20150;-77
2023/12/28 07:45:45;;;;;;;1.23;1.05;;;10.90;99.90;;;;;;7396300;19;20130;-77
2023/12/28 07:48:11;;;;;;;2.60;1.50;;;10.90;99.90;;;;;;7394501;19;20170;-76
2023/12/28 07:50:37;;;;;;;1.10;1.00;;;10.80;99.90;;;;;;7393196;19;20616;-78
2023/12/28 07:53:03;;;;;;;1.23;0.90;;;10.60;99.90;;;;;;7393820;19;20552;-77
2023/12/28 07:55:29;;;;;;;3.03;1.00;;;10.50;99.90;;;;;;7393063;19;20170;-77
2023/12/28 07:57:54;;;;;;;1.58;1.10;;;10.50;99.90;;;;;;7391020;19;20158;-80
2023/12/28 08:00:20;;;;;;;1.50;1.13;;;10.40;99.90;;;;;;7394520;19;20253;-76
2023/12/28 08:02:46;;;;;;;1.63;1.10;;;10.40;99.90;;;;;;7391546;19;20588;-76
2023/12/28 08:05:12;;;;;;;1.87;1.30;;;10.30;99.90;;;;;;7390202;19;20229;-77
2023/12/28 08:07:37;;;;;;;1.40;1.00;;;10.30;99.90;;;;;;7394002;19;20135;-76
2023/12/28 08:10:03;;;;;;;1.97;1.27;;;10.30;99.90;;;;;;7392295;19;20679;-77
2023/12/28 08:12:29;;;;;;;1.63;0.90;;;10.30;99.90;;;;;;7395797;19;20152;-76
2023/12/28 08:14:56;;;;;;;1.30;0.73;;;10.30;99.90;;;;;;7392630;19;20166;-76
2023/12/28 08:17:21;;;;;;;1.30;1.20;;;10.30;99.90;;;;;;7394956;19;20162;-76
2023/12/28 08:19:47;;;;;;;1.00;0.77;;;10.50;99.90;;;;;;7392669;19;20210;-76
2023/12/28 08:22:13;;;;;;;1.08;0.85;;;10.40;99.90;;;;;;7391608;19;20151;-77
2023/12/28 08:24:38;;;;;;;0.87;0.87;;;10.60;99.90;;;;;;7392062;19;20139;-77
2023/12/28 08:27:04;;;;;;;1.47;0.97;;;10.60;99.90;;;;;;7393439;19;20608;-76
2023/12/28 08:29:30;;;;;;;0.90;0.70;;;10.70;99.90;;;;;;7391111;19;20142;-76
2023/12/28 08:31:56;;;;;;;1.07;0.87;;;10.70;99.90;;;;;;7390776;19;20138;-77
2023/12/28 08:34:21;;;;;;;1.67;1.33;;;10.70;99.90;;;;;;7391912;19;20154;-78
2023/12/28 08:36:47;;;;;;;2.07;1.70;;;10.70;99.90;;;;;;7390922;19;20150;-77
2023/12/28 08:39:13;;;;;;;1.50;1.10;;;10.70;99.90;;;;;;7388553;19;20139;-76
2023/12/28 08:41:39;;;;;;;2.37;1.50;;;10.60;99.90;;;;;;7389103;19;20141;-76
2023/12/28 08:44:04;;;;;;;1.87;1.17;;;10.60;99.90;;;;;;7388053;19;20708;-73
2023/12/28 08:46:31;;;;;;;1.27;1.17;;;10.60;99.90;;;;;;7388338;19;20174;-73
2023/12/28 08:48:56;;;;;;;4.80;2.47;;;10.70;99.90;;;;;;7389576;19;20142;-73
2023/12/28 08:51:22;;;;;;;2.60;1.80;;;10.70;99.90;;;;;;7389777;19;20619;-73
2023/12/28 08:53:48;;;;;;;1.40;1.10;;;10.80;99.90;;;;;;7390441;19;20157;-72
2023/12/28 08:56:19;;;;;;;2.17;1.23;;;10.80;99.90;;;;;;7391822;19;20573;-73
2023/12/28 08:58:47;;;;;;;1.43;1.17;;;10.80;99.90;;;;;;7389318;19;20624;-73
2023/12/28 09:01:17;;;;;;;2.97;1.47;;;10.80;99.90;;;;;;7388908;19;20135;-73
2023/12/28 09:03:43;;;;;;;1.80;1.05;;;10.80;99.90;;;;;;7391484;19;20190;-73
2023/12/28 09:06:09;;;;;;;0.90;0.90;;;10.80;99.90;;;;;;7392379;19;20222;-72
2023/12/28 09:08:35;;;;;;;2.40;1.52;;;10.70;99.90;;;;;;7389741;19;20154;-75
2023/12/28 09:11:02;;;;;;;1.30;1.10;;;10.70;99.90;;;;;;7385469;19;20175;-73
2023/12/28 09:13:28;;;;;;;2.40;1.20;;;10.80;99.90;;;;;;7389472;19;20174;-73
2023/12/28 09:15:54;;;;;;;2.50;1.17;;;10.80;99.90;;;;;;7390128;19;20134;-71
2023/12/28 09:18:20;;;;;;;1.73;1.20;;;10.90;99.90;;;;;;7387558;19;20514;-76
2023/12/28 09:20:50;;;;;;;1.60;1.50;;;11.00;99.90;;;;;;7387889;19;20154;-75
2023/12/28 09:23:15;;;;;;;1.43;1.23;;;11.00;99.90;;;;;;7388412;19;20520;-72
2023/12/28 09:25:41;;;;;;;1.70;1.43;;;11.00;99.90;;;;;;7387393;19;20138;-73
2023/12/28 09:28:07;;;;;;;1.83;1.03;;;10.90;99.90;;;;;;7389501;19;20539;-72
2023/12/28 09:30:32;;;;;;;2.33;1.17;;;10.90;99.90;;;;;;7388667;19;20150;-74
2023/12/28 09:32:58;;;;;;;1.63;1.20;;;10.90;99.90;;;;;;7386984;19;20151;-72
2023/12/28 09:35:25;;;;;;;1.63;1.03;;;10.90;99.90;;;;;;7389569;19;20587;-74
2023/12/28 09:37:51;;;;;;;2.07;1.40;;;10.80;99.90;;;;;;7385751;19;20159;-73
2023/12/28 09:40:16;;;;;;;1.80;1.60;;;11.00;99.90;;;;;;7383571;19;20155;-74
2023/12/28 09:42:53;;;;;;;2.67;1.27;;;11.00;99.90;;;;;;7387905;19;20147;-72
2023/12/28 09:45:20;;;;;;;1.90;1.60;;;11.10;99.90;;;;;;7390321;19;20146;-72
2023/12/28 09:47:48;;;;;;;2.50;1.47;;;11.00;99.90;;;;;;7389821;19;20142;-72
2023/12/28 09:50:17;;;;;;;1.58;1.25;;;11.00;99.90;;;;;;7386880;19;20519;-72
2023/12/28 09:52:43;;;;;;;1.87;1.27;;;11.10;99.90;;;;;;7388120;19;20158;-72
2023/12/28 09:55:09;;;;;;;2.03;1.60;;;11.10;99.90;;;;;;7387969;19;20228;-72
2023/12/28 09:57:36;;;;;;;3.33;1.80;;;11.00;99.90;;;;;;7387373;19;20139;-74
2023/12/28 10:00:03;;;;;;;2.10;1.50;;;11.00;99.90;;;;;;7386960;19;20616;-73
2023/12/28 10:02:30;;;;;;;1.77;1.33;;;11.00;99.90;;;;;;7390783;19;20138;-73
2023/12/28 10:04:56;;;;;;;3.03;1.67;;;11.10;99.90;;;;;;7386098;19;20930;-73
2023/12/28 10:07:22;;;;;;;1.57;1.27;;;11.10;99.90;;;;;;7385935;19;20221;-73
2023/12/28 10:09:47;;;;;;;3.08;2.20;;;10.70;99.90;;;;;;7385407;19;20163;-72
2023/12/28 10:12:14;;;;;;;2.38;1.40;;;10.90;99.90;;;;;;7388519;19;20504;-73
2023/12/28 10:14:41;;;;;;;2.93;1.63;;;11.00;99.90;;;;;;7387422;19;20138;-72
2023/12/28 10:17:07;;;;;;;3.40;2.03;;;11.10;99.90;;;;;;7386990;19;20126;-72
2023/12/28 10:19:32;;;;;;;1.92;1.50;;;11.20;99.90;;;;;;7386244;19;20159;-71
2023/12/28 10:22:00;;;;;;;2.17;1.50;;;11.20;99.90;;;;;;7386309;19;20860;-71
2023/12/28 10:24:26;;;;;;;1.57;1.00;;;11.10;99.90;;;;;;7389987;19;20155;-72
2023/12/28 10:26:53;;;;;;;1.48;0.80;;;11.10;99.90;;;;;;7386101;19;20491;-72
2023/12/28 10:29:18;;;;;;;2.50;1.52;;;11.10;99.90;;;;;;7386998;19;20138;-72
2023/12/28 10:31:49;;;;;;;2.38;1.25;;;11.10;99.90;;;;;;7386043;19;20163;-71
2023/12/28 10:34:15;;;;;;;1.95;1.63;;;11.30;99.90;;;;;;7386453;19;20528;-73
2023/12/28 10:36:41;;;;;;;3.05;1.58;;;11.40;99.90;;;;;;7385849;19;20159;-75
2023/12/28 10:39:12;;;;;;;1.38;0.95;;;11.30;99.90;;;;;;7382259;19;20155;-73
2023/12/28 10:41:41;;;;;;;4.88;2.58;;;11.40;99.90;;;;;;7384746;19;20649;-73
2023/12/28 10:44:08;;;;;;;1.67;1.33;;;11.40;99.90;;;;;;7385729;19;20151;-73
2023/12/28 10:46:41;;;;;;;0.60;0.60;;;11.50;99.90;;;;;;7387675;19;20138;-72
2023/12/28 10:49:17;;;;;;;0.60;0.47;;;11.50;99.90;;;;;;7386004;19;20151;-72
2023/12/28 10:51:43;;;;;;;1.23;0.60;;;11.70;99.90;;;;;;7386074;19;20147;-72
2023/12/28 10:54:22;;;;;;;0.98;0.60;;;11.60;99.90;;;;;;7386052;19;20439;-72
2023/12/28 10:57:01;;;;;;;0.90;0.70;;;11.70;99.90;;;;;;7385651;19;20150;-72
2023/12/28 10:59:32;;;;;;;0.93;0.70;;;11.80;99.90;;;;;;7386400;19;20932;-73
2023/12/28 11:02:01;;;;;;;0.52;0.52;;;11.90;99.90;;;;;;7393415;19;20478;-73
2023/12/28 11:04:47;;;;;;;0.90;0.80;;;11.90;99.90;;;;;;7390527;19;20170;-72
2023/12/28 11:07:15;;;;;;;1.65;0.88;;;11.90;99.90;;;;;;7391548;19;20172;-74
2023/12/28 11:09:44;;;;;;;0.60;0.57;;;12.00;99.90;;;;;;7391737;19;20158;-73
2023/12/28 11:12:18;;;;;;;0.50;0.47;;;12.00;99.90;;;;;;7395040;19;20206;-73
2023/12/28 11:14:45;;;;;;;1.88;0.88;;;12.00;99.90;;;;;;7389222;19;20157;-73
2023/12/28 11:17:11;;;;;;;1.33;0.50;;;11.90;99.90;;;;;;7384130;19;20167;-72
2023/12/28 11:19:38;;;;;;;0.50;0.50;;;11.90;99.90;;;;;;7389361;19;20135;-73
2023/12/28 11:22:05;;;;;;;1.30;0.75;;;11.90;99.90;;;;;;7388123;19;20480;-73
2023/12/28 11:24:33;;;;;;;0.20;0.20;;;11.90;99.90;;;;;;7391357;19;20139;-72
2023/12/28 11:26:59;;;;;;;0.50;0.40;;;12.10;99.90;;;;;;7392072;19;20158;-72
2023/12/28 11:29:25;;;;;;;0.50;0.50;;;12.20;99.90;;;;;;7391273;19;20627;-72
2023/12/28 11:31:52;;;;;;;0.40;0.40;;;12.10;99.90;;;;;;7394610;19;20153;-73
2023/12/28 11:34:18;;;;;;;0.55;0.55;;;12.20;99.90;;;;;;7392596;19;20152;-73
2023/12/28 11:36:51;;;;;;;0.40;0.40;;;12.00;99.90;;;;;;7391486;19;20150;-72
2023/12/28 11:39:33;;;;;;;0.50;0.50;;;12.00;99.90;;;;;;7391781;19;20145;-72
2023/12/28 11:42:03;;;;;;;0.55;0.55;;;12.00;99.90;;;;;;7391586;19;20138;-72
2023/12/28 11:44:39;;;;;;;0.73;0.65;;;12.00;99.90;;;;;;7392023;19;20160;-71
2023/12/28 11:47:16;;;;;;;0.45;0.45;;;12.10;99.90;;;;;;7392699;19;20505;-74
2023/12/28 11:49:42;;;;;;;1.13;0.52;;;12.10;99.90;;;;;;7392749;19;20145;-73
2023/12/28 11:52:11;;;;;;;0.63;0.60;;;12.00;99.90;;;;;;7391910;19;20146;-72
2023/12/28 11:54:36;;;;;;;1.25;0.60;;;12.00;99.90;;;;;;7390731;19;20122;-73
2023/12/28 11:57:02;;;;;;;1.73;0.90;;;12.00;99.90;;;;;;7393157;19;20178;-72
2023/12/28 11:59:29;;;;;;;0.93;0.50;;;12.00;99.90;;;;;;7392163;19;20522;-73
2023/12/28 12:01:54;;;;;;;0.95;0.73;;;12.10;99.90;;;;;;7393142;19;21410;-72
2023/12/28 12:04:21;;;;;;;1.80;1.40;;;12.10;99.90;;;;;;7389983;19;20178;-73
2023/12/28 12:06:47;;;;;;;3.28;2.05;;;12.00;99.90;;;;;;7393573;19;20135;-73
2023/12/28 12:09:14;;;;;;;2.20;0.80;;;12.00;99.90;;;;;;7393784;19;20130;-72
2023/12/28 12:11:40;;;;;;;0.60;0.60;;;12.10;99.90;;;;;;7391055;19;20138;-73
2023/12/28 12:14:09;;;;;;;1.45;1.10;;;12.20;99.90;;;;;;7390874;19;20142;-73
2023/12/28 12:16:39;;;;;;;0.57;0.43;;;12.10;99.90;;;;;;7391018;19;20514;-73
2023/12/28 12:19:06;;;;;;;0.60;0.60;;;12.10;99.90;;;;;;7390031;19;20591;-72
2023/12/28 12:21:34;;;;;;;0.68;0.57;;;12.20;99.90;;;;;;7391834;19;20155;-72
2023/12/28 12:24:01;;;;;;;1.75;0.43;;;12.20;99.90;;;;;;7390008;19;20140;-72
2023/12/28 12:26:29;;;;;;;1.00;0.75;;;12.20;99.90;;;;;;7390728;19;20169;-73
2023/12/28 12:28:55;;;;;;;2.22;1.13;;;12.30;99.90;;;;;;7389292;19;20135;-72
2023/12/28 12:31:21;;;;;;;1.10;0.90;;;12.30;99.90;;;;;;7388553;19;20143;-73
2023/12/28 12:33:48;;;;;;;0.75;0.70;;;12.20;99.90;;;;;;7391191;19;20138;-72
2023/12/28 12:36:13;;;;;;;0.90;0.70;;;12.30;99.90;;;;;;7391249;19;20483;-72
2023/12/28 12:38:40;;;;;;;0.65;0.60;;;12.20;99.90;;;;;;7391937;19;20141;-73
2023/12/28 12:41:07;;;;;;;0.60;0.60;;;12.20;99.90;;;;;;7391027;19;20493;-72
2023/12/28 12:43:33;;;;;;;0.70;0.63;;;12.20;99.90;;;;;;7390760;19;20142;-72
2023/12/28 12:46:00;;;;;;;0.68;0.68;;;12.20;99.90;;;;;;7389472;19;20138;-71
2023/12/28 12:48:26;;;;;;;1.65;0.90;;;12.20;99.90;;;;;;7388900;19;20138;-71
2023/12/28 12:50:52;;;;;;;1.10;0.88;;;12.10;99.90;;;;;;7388042;19;20162;-73